createdAt,value
2018-12-26T00:01:56.254Z,2.80
2018-12-26T00:04:41.933Z,8.30
2018-12-26T00:07:25.789Z,7.53
2018-12-26T00:13:20.465Z,4.60
2018-12-26T00:16:04.187Z,5.40
2018-12-26T00:21:55.835Z,5.30
2018-12-26T00:24:44.487Z,3.73
2018-12-26T00:27:13.755Z,5.20
2018-12-26T00:29:42.996Z,4.03
2018-12-26T00:32:46.795Z,9.10
2018-12-26T00:35:32.717Z,4.87
2018-12-26T00:41:05.233Z,4.10
2018-12-26T00:43:34.488Z,6.57
2018-12-26T00:46:03.817Z,4.83
2018-12-26T00:58:07.155Z,5.30
2018-12-26T01:00:49.072Z,5.67
2018-12-26T01:03:18.345Z,6.00
2018-12-26T01:06:26.099Z,8.97
2018-12-26T01:08:55.354Z,6.80
2018-12-26T01:12:04.512Z,5.50
2018-12-26T01:14:33.779Z,5.80
2018-12-26T01:20:45.438Z,5.80
2018-12-26T01:26:55.301Z,8.83
2018-12-26T01:29:24.536Z,7.00
2018-12-26T01:31:54.161Z,8.90
2018-12-26T01:44:03.723Z,3.00
2018-12-26T01:46:32.962Z,4.70
2018-12-26T01:52:45.448Z,6.67
2018-12-26T01:55:14.707Z,6.67
2018-12-26T01:57:43.972Z,2.77
2018-12-26T02:00:26.951Z,8.60
2018-12-26T02:03:11.027Z,5.10
2018-12-26T02:06:11.437Z,6.10
2018-12-26T02:11:50.653Z,6.30
2018-12-26T02:17:12.988Z,3.87
2018-12-26T02:23:08.272Z,7.87
2018-12-26T02:29:26.484Z,5.37
2018-12-26T02:32:10.555Z,6.03
2018-12-26T02:34:53.034Z,9.87
2018-12-26T02:37:36.324Z,6.60
2018-12-26T02:43:16.549Z,5.97
2018-12-26T02:46:05.180Z,4.70
2018-12-26T02:49:05.738Z,4.47
2018-12-26T02:54:41.862Z,6.00
2018-12-26T02:57:25.021Z,5.50
2018-12-26T03:00:10.971Z,3.20
2018-12-26T03:02:54.090Z,6.73
2018-12-26T03:08:12.593Z,4.03
2018-12-26T03:17:34.484Z,4.77
2018-12-26T03:20:17.567Z,3.23
2018-12-26T03:23:03.413Z,3.43
2018-12-26T03:25:46.867Z,4.00
2018-12-26T03:28:30.763Z,3.30
2018-12-26T03:31:00.183Z,4.07
2018-12-26T03:33:29.555Z,2.67
2018-12-26T03:39:32.638Z,4.03
2018-12-26T03:42:01.965Z,3.83
2018-12-26T03:50:33.795Z,3.37
2018-12-26T03:53:18.952Z,5.47
2018-12-26T03:59:15.605Z,3.10
2018-12-26T04:05:12.558Z,2.63
2018-12-26T04:07:57.743Z,4.50
2018-12-26T04:10:42.852Z,3.30
2018-12-26T04:13:28.010Z,4.03
2018-12-26T04:15:57.378Z,2.87
2018-12-26T04:18:46.057Z,6.17
2018-12-26T04:21:29.384Z,2.10
2018-12-26T04:24:13.234Z,2.43
2018-12-26T04:29:52.945Z,3.17
2018-12-26T04:33:06.357Z,7.40
2018-12-26T04:39:05.121Z,4.63
2018-12-26T04:41:48.425Z,4.03
2018-12-26T04:44:36.647Z,4.57
2018-12-26T04:47:20.470Z,5.07
2018-12-26T04:56:28.143Z,3.77
2018-12-26T04:58:57.399Z,3.00
2018-12-26T05:01:46.306Z,7.60
2018-12-26T05:04:15.656Z,5.67
2018-12-26T05:06:45.055Z,4.10
2018-12-26T05:12:46.151Z,3.90
2018-12-26T05:15:31.755Z,4.20
2018-12-26T05:24:13.491Z,5.17
2018-12-26T05:26:59.042Z,6.27
2018-12-26T05:29:41.693Z,5.80
2018-12-26T05:32:11.058Z,8.00
2018-12-26T05:37:41.967Z,6.43
2018-12-26T05:43:40.511Z,6.60
2018-12-26T05:46:24.082Z,7.30
2018-12-26T05:49:08.047Z,6.63
2018-12-26T05:51:56.153Z,6.50
2018-12-26T05:54:25.429Z,10.00
2018-12-26T05:57:32.041Z,7.73
2018-12-26T06:00:01.441Z,3.80
2018-12-26T06:06:21.292Z,6.80
2018-12-26T06:09:05.253Z,5.50
2018-12-26T06:20:54.424Z,8.33
2018-12-26T06:23:36.842Z,7.90
2018-12-26T06:29:36.039Z,8.27
2018-12-26T06:35:33.496Z,9.93
2018-12-26T06:38:19.525Z,7.43
2018-12-26T06:47:34.387Z,9.63
2018-12-26T07:05:57.048Z,8.67
2018-12-26T07:11:54.075Z,11.70
2018-12-26T07:14:39.200Z,7.50
2018-12-26T07:20:19.771Z,8.77
2018-12-26T07:23:03.645Z,17.40
2018-12-26T07:25:46.945Z,11.60
2018-12-26T07:28:34.957Z,10.30
2018-12-26T07:31:23.588Z,10.90
2018-12-26T07:34:08.640Z,8.60
2018-12-26T07:40:03.033Z,9.03
2018-12-26T07:45:45.056Z,9.67
2018-12-26T07:48:14.296Z,9.93
2018-12-26T07:50:43.578Z,9.70
2018-12-26T07:53:12.895Z,17.60
2018-12-26T07:55:42.147Z,12.10
2018-12-26T07:58:29.331Z,14.40
2018-12-26T08:01:12.941Z,13.40
2018-12-26T08:03:42.216Z,19.67
2018-12-26T08:06:26.014Z,13.80
2018-12-26T08:08:55.266Z,11.63
2018-12-26T08:11:44.925Z,8.30
2018-12-26T08:20:21.886Z,9.47
2018-12-26T08:23:05.541Z,7.80
2018-12-26T08:25:49.372Z,15.90
2018-12-26T08:28:37.503Z,10.77
2018-12-26T08:31:06.789Z,10.07
2018-12-26T08:34:13.115Z,12.00
2018-12-26T08:37:01.245Z,8.63
2018-12-26T08:43:09.380Z,14.80
2018-12-26T08:45:52.406Z,11.60
2018-12-26T08:48:38.199Z,12.20
2018-12-26T08:51:22.189Z,15.50
2018-12-26T08:54:05.935Z,11.10
2018-12-26T08:59:55.730Z,11.03
2018-12-26T09:02:41.404Z,8.23
2018-12-26T09:05:23.351Z,11.73
2018-12-26T09:07:52.610Z,5.90
2018-12-26T09:10:35.010Z,11.10
2018-12-26T09:16:28.233Z,8.60
2018-12-26T09:21:21.177Z,14.40
2018-12-26T09:27:10.763Z,13.03
2018-12-26T09:29:55.937Z,5.70
2018-12-26T09:32:39.480Z,13.07
2018-12-26T09:45:10.230Z,10.47
2018-12-26T09:47:39.597Z,11.63
2018-12-26T09:52:55.907Z,14.57
2018-12-26T09:58:52.626Z,11.20
2018-12-26T10:01:41.107Z,11.93
2018-12-26T10:04:24.593Z,13.70
2018-12-26T10:07:09.762Z,12.90
2018-12-26T10:09:57.283Z,9.13
2018-12-26T10:15:39.512Z,13.67
2018-12-26T10:18:08.766Z,12.17
2018-12-26T10:20:38.264Z,11.80
2018-12-26T10:23:26.774Z,16.23
2018-12-26T10:26:15.477Z,11.93
2018-12-26T10:29:03.517Z,16.40
2018-12-26T10:31:47.548Z,11.93
2018-12-26T10:34:32.590Z,15.90
2018-12-26T10:37:18.671Z,12.60
2018-12-26T10:39:48.048Z,21.17
2018-12-26T10:42:33.165Z,12.77
2018-12-26T10:45:20.483Z,11.63
2018-12-26T10:48:04.483Z,15.10
2018-12-26T10:53:56.531Z,15.73
2018-12-26T10:56:40.508Z,16.40
2018-12-26T10:59:25.783Z,10.90
2018-12-26T11:02:09.204Z,10.87
2018-12-26T11:04:57.375Z,15.17
2018-12-26T11:07:43.060Z,10.53
2018-12-26T11:10:27.724Z,11.87
2018-12-26T11:13:11.462Z,12.33
2018-12-26T11:15:54.692Z,8.83
2018-12-26T11:18:39.782Z,10.33
2018-12-26T11:21:09.123Z,16.83
2018-12-26T11:23:38.376Z,11.00
2018-12-26T11:26:20.205Z,15.63
2018-12-26T11:28:49.477Z,8.13
2018-12-26T11:31:44.284Z,11.30
2018-12-26T11:34:32.202Z,21.73
2018-12-26T11:37:16.147Z,10.83
2018-12-26T11:39:45.398Z,13.70
2018-12-26T11:42:14.647Z,13.67
2018-12-26T11:48:21.853Z,10.83
2018-12-26T11:51:07.335Z,12.00
2018-12-26T11:53:36.591Z,15.93
2018-12-26T11:59:47.643Z,17.17
2018-12-26T12:02:32.692Z,20.20
2018-12-26T12:08:09.587Z,15.90
2018-12-26T12:10:52.999Z,14.27
2018-12-26T12:13:36.527Z,13.17
2018-12-26T12:16:24.140Z,12.50
2018-12-26T12:24:58.931Z,10.63
2018-12-26T12:27:42.784Z,10.43
2018-12-26T12:30:12.079Z,24.83
2018-12-26T12:32:41.319Z,11.43
2018-12-26T12:39:04.559Z,11.17
2018-12-26T12:41:33.814Z,13.43
2018-12-26T12:47:10.865Z,12.00
2018-12-26T12:49:58.669Z,9.70
2018-12-26T12:55:52.723Z,17.23
2018-12-26T12:58:38.228Z,12.00
2018-12-26T13:01:21.661Z,16.53
2018-12-26T13:04:10.421Z,9.90
2018-12-26T13:10:25.836Z,16.77
2018-12-26T13:12:55.087Z,15.17
2018-12-26T13:19:03.715Z,15.23
2018-12-26T13:24:45.670Z,11.50
2018-12-26T13:30:27.451Z,18.73
2018-12-26T13:33:10.573Z,14.57
2018-12-26T13:35:58.651Z,14.40
2018-12-26T13:38:27.978Z,11.10
2018-12-26T13:41:12.725Z,9.00
2018-12-26T13:43:56.352Z,16.53
2018-12-26T13:50:05.264Z,10.50
2018-12-26T13:55:47.325Z,14.93
2018-12-26T13:58:29.911Z,10.53
2018-12-26T14:04:24.912Z,14.53
2018-12-26T14:06:54.178Z,10.00
2018-12-26T14:13:04.608Z,9.63
2018-12-26T14:15:50.181Z,11.17
2018-12-26T14:21:25.371Z,8.27
2018-12-26T14:23:54.625Z,11.87
2018-12-26T14:26:55.531Z,9.30
2018-12-26T14:29:24.834Z,7.00
2018-12-26T14:32:09.984Z,10.93
2018-12-26T14:34:39.273Z,5.97
2018-12-26T14:40:01.478Z,7.53
2018-12-26T14:51:52.220Z,9.00
2018-12-26T14:54:36.085Z,16.53
2018-12-26T15:03:26.408Z,11.10
2018-12-26T15:06:09.084Z,11.60
2018-12-26T15:08:52.804Z,11.23
2018-12-26T15:11:35.973Z,13.17
2018-12-26T15:14:05.219Z,14.10
2018-12-26T15:16:54.283Z,13.67
2018-12-26T15:22:30.972Z,12.70
2018-12-26T15:28:07.674Z,12.53
2018-12-26T15:30:36.969Z,8.60
2018-12-26T15:33:06.264Z,9.67
2018-12-26T15:35:54.882Z,11.17
2018-12-26T15:38:38.781Z,9.80
2018-12-26T15:41:24.056Z,14.87
2018-12-26T15:44:06.348Z,11.23
2018-12-26T15:46:36.248Z,13.13
2018-12-26T15:49:05.554Z,10.03
2018-12-26T15:51:36.574Z,14.13
2018-12-26T15:57:52.354Z,12.43
2018-12-26T16:00:37.539Z,10.10
2018-12-26T16:03:05.331Z,11.37
2018-12-26T16:05:53.953Z,13.37
2018-12-26T16:08:55.416Z,12.43
2018-12-26T16:11:24.756Z,11.90
2018-12-26T16:14:13.477Z,11.90
2018-12-26T16:16:48.160Z,9.30
2018-12-26T16:19:31.011Z,9.30
2018-12-26T16:22:16.576Z,13.43
2018-12-26T16:25:16.874Z,10.23
2018-12-26T16:30:58.501Z,8.33
2018-12-26T16:40:01.950Z,12.60
2018-12-26T16:42:31.327Z,11.33
2018-12-26T16:48:11.742Z,11.73
2018-12-26T16:50:55.571Z,13.03
2018-12-26T16:53:43.716Z,12.17
2018-12-26T16:56:13.072Z,10.70
2018-12-26T16:59:01.739Z,10.83
2018-12-26T17:01:47.644Z,11.37
2018-12-26T17:04:33.377Z,12.60
2018-12-26T17:07:18.496Z,10.13
2018-12-26T17:10:03.708Z,13.57
2018-12-26T17:15:56.512Z,10.97
2018-12-26T17:18:25.793Z,10.63
2018-12-26T17:24:33.905Z,16.50
2018-12-26T17:27:17.582Z,12.67
2018-12-26T17:30:00.940Z,9.13
2018-12-26T17:32:30.301Z,9.50
2018-12-26T17:34:59.563Z,12.73
2018-12-26T17:37:28.911Z,11.13
2018-12-26T17:39:58.187Z,9.70
2018-12-26T17:43:00.886Z,11.20
2018-12-26T17:45:32.294Z,7.97
2018-12-26T17:48:39.644Z,7.03
2018-12-26T17:51:52.673Z,8.50
2018-12-26T17:57:48.224Z,7.00
2018-12-26T18:00:32.091Z,6.47
2018-12-26T18:03:17.260Z,8.10
2018-12-26T18:06:02.394Z,7.80
2018-12-26T18:08:48.056Z,10.00
2018-12-26T18:11:31.976Z,6.90
2018-12-26T18:14:19.414Z,6.10
2018-12-26T18:17:07.346Z,7.50
2018-12-26T18:19:49.131Z,5.90
2018-12-26T18:22:31.831Z,10.03
2018-12-26T18:25:19.760Z,9.80
2018-12-26T18:28:03.350Z,12.63
2018-12-26T18:30:46.802Z,12.33
2018-12-26T18:33:32.036Z,11.83
2018-12-26T18:36:01.386Z,12.10
2018-12-26T18:38:47.113Z,9.27
2018-12-26T18:41:32.966Z,15.37
2018-12-26T18:44:15.920Z,10.00
2018-12-26T18:53:27.295Z,10.00
2018-12-26T18:56:12.569Z,13.43
2018-12-26T18:58:56.208Z,14.40
2018-12-26T19:04:42.767Z,15.13
2018-12-26T19:16:45.988Z,14.53
2018-12-26T19:19:15.318Z,19.97
2018-12-26T19:21:50.696Z,19.97
2018-12-26T19:24:45.831Z,15.60
2018-12-26T19:30:52.102Z,18.40
2018-12-26T19:39:32.618Z,15.07
2018-12-26T19:42:18.396Z,13.77
2018-12-26T19:47:54.841Z,17.73
2018-12-26T19:50:24.120Z,20.07
2018-12-26T19:52:53.414Z,16.00
2018-12-26T19:55:22.702Z,19.17
2018-12-26T19:57:51.988Z,18.20
2018-12-26T20:00:40.641Z,19.13
2018-12-26T20:03:09.931Z,15.57
2018-12-26T20:05:58.635Z,17.10
2018-12-26T20:12:07.471Z,13.43
2018-12-26T20:14:53.095Z,13.93
2018-12-26T20:17:22.396Z,15.70
2018-12-26T20:20:06.200Z,16.90
2018-12-26T20:26:01.735Z,14.63
2018-12-26T20:28:45.480Z,15.73
2018-12-26T20:31:28.758Z,17.30
2018-12-26T20:33:58.029Z,15.07
2018-12-26T20:36:27.321Z,16.93
2018-12-26T20:38:56.624Z,15.80
2018-12-26T20:41:25.889Z,15.70
2018-12-26T20:43:55.183Z,14.40
2018-12-26T20:49:48.860Z,20.03
2018-12-26T20:52:34.594Z,14.27
2018-12-26T20:55:03.882Z,14.33
2018-12-26T20:57:49.923Z,12.97
2018-12-26T21:03:32.564Z,14.27
2018-12-26T21:06:01.890Z,14.83
2018-12-26T21:12:17.982Z,13.97
2018-12-26T21:15:01.488Z,18.47
2018-12-26T21:21:09.096Z,13.97
2018-12-26T21:26:32.715Z,17.20
2018-12-26T21:32:14.136Z,16.90
2018-12-26T21:34:42.059Z,18.10
2018-12-26T21:40:33.919Z,13.83
2018-12-26T21:43:16.919Z,13.30
2018-12-26T21:46:00.823Z,14.67
2018-12-26T21:48:44.063Z,14.00
2018-12-26T21:54:25.933Z,15.53
2018-12-26T22:03:35.975Z,14.73
2018-12-26T22:09:16.244Z,13.43
2018-12-26T22:15:25.489Z,11.20
2018-12-26T22:20:54.480Z,11.87
2018-12-26T22:23:37.922Z,15.30
2018-12-26T22:29:07.975Z,11.00
2018-12-26T22:31:51.590Z,16.73
2018-12-26T22:34:20.897Z,15.83
2018-12-26T22:36:50.179Z,16.53
2018-12-26T22:39:39.026Z,17.70
2018-12-26T22:45:45.275Z,15.97
2018-12-26T22:48:14.608Z,14.00
2018-12-26T22:50:43.971Z,18.53
2018-12-26T22:56:38.169Z,16.20
2018-12-26T22:59:07.464Z,17.60
2018-12-26T23:01:56.090Z,17.03
2018-12-26T23:04:25.375Z,16.50
2018-12-26T23:07:14.057Z,19.50
2018-12-26T23:13:00.959Z,19.90
2018-12-26T23:15:30.248Z,18.10
2018-12-26T23:18:13.546Z,16.43
2018-12-26T23:23:49.171Z,25.57
2018-12-26T23:26:18.468Z,23.07
2018-12-26T23:29:02.436Z,23.13
2018-12-26T23:31:44.891Z,30.10
2018-12-26T23:34:28.158Z,33.03
2018-12-26T23:43:23.739Z,30.77
2018-12-26T23:46:06.239Z,22.10
2018-12-26T23:48:35.557Z,24.90
2018-12-26T23:51:04.909Z,24.00
2018-12-26T23:53:34.196Z,20.97
2018-12-26T23:56:03.579Z,19.43
